sensor_id;sensor_type;location;lat;lon;timestamp;pressure;altitude;pressure_sealevel;temperature
11926;BMP180;6022;48.768;18.608;2022-07-29T00:00:27;98468.63;;;20.72
11926;BMP180;6022;48.768;18.608;2022-07-29T00:02:55;98473.16;;;20.78
11926;BMP180;6022;48.768;18.608;2022-07-29T00:05:22;98473.75;;;20.64
11926;BMP180;6022;48.768;18.608;2022-07-29T00:07:50;98472.78;;;20.65
11926;BMP180;6022;48.768;18.608;2022-07-29T00:10:18;98464.41;;;20.63
11926;BMP180;6022;48.768;18.608;2022-07-29T00:12:45;98474.34;;;20.58
11926;BMP180;6022;48.768;18.608;2022-07-29T00:15:15;98474.50;;;20.57
11926;BMP180;6022;48.768;18.608;2022-07-29T00:17:43;98466.00;;;20.64
11926;BMP180;6022;48.768;18.608;2022-07-29T00:20:10;98471.91;;;20.57
11926;BMP180;6022;48.768;18.608;2022-07-29T00:22:39;98474.34;;;20.58
11926;BMP180;6022;48.768;18.608;2022-07-29T00:25:07;98461.78;;;20.55
11926;BMP180;6022;48.768;18.608;2022-07-29T00:27:38;98466.59;;;20.58
11926;BMP180;6022;48.768;18.608;2022-07-29T00:30:06;98467.94;;;20.62
11926;BMP180;6022;48.768;18.608;2022-07-29T00:32:34;98463.09;;;20.59
11926;BMP180;6022;48.768;18.608;2022-07-29T00:35:01;98474.50;;;20.57
11926;BMP180;6022;48.768;18.608;2022-07-29T00:37:47;98474.63;;;20.47
11926;BMP180;6022;48.768;18.608;2022-07-29T00:40:15;98476.41;;;20.47
11926;BMP180;6022;48.768;18.608;2022-07-29T00:42:47;98477.19;;;20.40
11926;BMP180;6022;48.768;18.608;2022-07-29T00:45:19;98471.06;;;20.33
11926;BMP180;6022;48.768;18.608;2022-07-29T00:47:47;98473.28;;;20.28
11926;BMP180;6022;48.768;18.608;2022-07-29T00:50:14;98474.59;;;20.32
11926;BMP180;6022;48.768;18.608;2022-07-29T00:52:42;98472.66;;;20.34
11926;BMP180;6022;48.768;18.608;2022-07-29T00:55:13;98470.09;;;20.34
11926;BMP180;6022;48.768;18.608;2022-07-29T00:57:43;98471.53;;;20.36
11926;BMP180;6022;48.768;18.608;2022-07-29T01:00:23;98473.31;;;20.44
11926;BMP180;6022;48.768;18.608;2022-07-29T01:02:52;98472.03;;;20.40
11926;BMP180;6022;48.768;18.608;2022-07-29T01:05:26;98467.84;;;20.31
11926;BMP180;6022;48.768;18.608;2022-07-29T01:08:16;98482.16;;;20.33
11926;BMP180;6022;48.768;18.608;2022-07-29T01:10:45;98475.72;;;20.29
11926;BMP180;6022;48.768;18.608;2022-07-29T01:13:17;98471.38;;;20.30
11926;BMP180;6022;48.768;18.608;2022-07-29T01:15:55;98474.28;;;20.35
11926;BMP180;6022;48.768;18.608;2022-07-29T01:18:34;98460.09;;;20.31
11926;BMP180;6022;48.768;18.608;2022-07-29T01:21:53;98475.38;;;20.32
11926;BMP180;6022;48.768;18.608;2022-07-29T01:30:40;98474.72;;;20.22
11926;BMP180;6022;48.768;18.608;2022-07-29T01:33:15;98468.91;;;20.20
11926;BMP180;6022;48.768;18.608;2022-07-29T01:36:14;98464.81;;;20.10
11926;BMP180;6022;48.768;18.608;2022-07-29T01:39:11;98461.78;;;20.07
11926;BMP180;6022;48.768;18.608;2022-07-29T01:41:54;98452.91;;;20.01
11926;BMP180;6022;48.768;18.608;2022-07-29T01:47:19;98453.94;;;20.16
11926;BMP180;6022;48.768;18.608;2022-07-29T01:49:51;98449.22;;;20.11
11926;BMP180;6022;48.768;18.608;2022-07-29T01:52:34;98453.94;;;20.16
11926;BMP180;6022;48.768;18.608;2022-07-29T01:55:14;98456.16;;;20.11
11926;BMP180;6022;48.768;18.608;2022-07-29T01:57:46;98451.81;;;20.19
11926;BMP180;6022;48.768;18.608;2022-07-29T02:00:15;98452.31;;;20.15
11926;BMP180;6022;48.768;18.608;2022-07-29T02:02:47;98441.31;;;20.05
11926;BMP180;6022;48.768;18.608;2022-07-29T02:05:21;98443.91;;;20.05
11926;BMP180;6022;48.768;18.608;2022-07-29T02:07:51;98442.91;;;20.06
11926;BMP180;6022;48.768;18.608;2022-07-29T02:10:24;98453.53;;;20.03
11926;BMP180;6022;48.768;18.608;2022-07-29T02:12:56;98451.91;;;20.02
11926;BMP180;6022;48.768;18.608;2022-07-29T02:15:31;98441.63;;;20.02
11926;BMP180;6022;48.768;18.608;2022-07-29T02:18:07;98445.19;;;20.09
11926;BMP180;6022;48.768;18.608;2022-07-29T02:20:38;98446.75;;;20.02
11926;BMP180;6022;48.768;18.608;2022-07-29T02:23:10;98451.75;;;19.96
11926;BMP180;6022;48.768;18.608;2022-07-29T02:25:41;98446.25;;;19.99
11926;BMP180;6022;48.768;18.608;2022-07-29T02:28:13;98450.31;;;20.01
11926;BMP180;6022;48.768;18.608;2022-07-29T02:30:46;98448.91;;;20.07
11926;BMP180;6022;48.768;18.608;2022-07-29T02:33:16;98445.22;;;20.17
11926;BMP180;6022;48.768;18.608;2022-07-29T02:35:47;98446.78;;;20.10
11926;BMP180;6022;48.768;18.608;2022-07-29T02:38:18;98443.91;;;20.05
11926;BMP180;6022;48.768;18.608;2022-07-29T02:41:15;98452.53;;;19.96
11926;BMP180;6022;48.768;18.608;2022-07-29T02:43:47;98447.53;;;19.95
11926;BMP180;6022;48.768;18.608;2022-07-29T02:46:23;98446.22;;;19.91
11926;BMP180;6022;48.768;18.608;2022-07-29T02:49:09;98450.59;;;19.90
11926;BMP180;6022;48.768;18.608;2022-07-29T02:51:46;98445.59;;;19.89
11926;BMP180;6022;48.768;18.608;2022-07-29T02:57:23;98442.84;;;19.90
11926;BMP180;6022;48.768;18.608;2022-07-29T02:59:59;98449.44;;;19.85
11926;BMP180;6022;48.768;18.608;2022-07-29T03:02:43;98443.50;;;19.92
11926;BMP180;6022;48.768;18.608;2022-07-29T03:05:17;98428.25;;;19.99
11926;BMP180;6022;48.768;18.608;2022-07-29T03:07:51;98436.88;;;20.23
11926;BMP180;6022;48.768;18.608;2022-07-29T03:10:21;98438.03;;;20.36
11926;BMP180;6022;48.768;18.608;2022-07-29T03:12:49;98441.94;;;20.40
11926;BMP180;6022;48.768;18.608;2022-07-29T03:15:18;98431.63;;;20.40
11926;BMP180;6022;48.768;18.608;2022-07-29T03:17:46;98438.41;;;20.57
11926;BMP180;6022;48.768;18.608;2022-07-29T03:20:13;98437.59;;;20.56
11926;BMP180;6022;48.768;18.608;2022-07-29T03:22:43;98438.91;;;20.60
11926;BMP180;6022;48.768;18.608;2022-07-29T03:25:13;98438.53;;;20.47
11926;BMP180;6022;48.768;18.608;2022-07-29T03:27:45;98439.00;;;20.27
11926;BMP180;6022;48.768;18.608;2022-07-29T03:30:13;98441.19;;;20.14
11926;BMP180;6022;48.768;18.608;2022-07-29T03:32:49;98444.81;;;19.96
11926;BMP180;6022;48.768;18.608;2022-07-29T03:35:21;98439.97;;;19.93
11926;BMP180;6022;48.768;18.608;2022-07-29T03:37:49;98442.72;;;19.92
11926;BMP180;6022;48.768;18.608;2022-07-29T03:40:26;98439.97;;;19.93
11926;BMP180;6022;48.768;18.608;2022-07-29T03:42:56;98447.34;;;19.88
11926;BMP180;6022;48.768;18.608;2022-07-29T03:45:26;98454.09;;;19.89
11926;BMP180;6022;48.768;18.608;2022-07-29T03:48:01;98450.56;;;19.82
11926;BMP180;6022;48.768;18.608;2022-07-29T03:50:32;98450.56;;;19.82
11926;BMP180;6022;48.768;18.608;2022-07-29T03:53:02;98446.84;;;19.85
11926;BMP180;6022;48.768;18.608;2022-07-29T03:55:44;98450.94;;;19.95
11926;BMP180;6022;48.768;18.608;2022-07-29T03:58:14;98444.66;;;19.98
11926;BMP180;6022;48.768;18.608;2022-07-29T04:00:42;98448.41;;;20.11
11926;BMP180;6022;48.768;18.608;2022-07-29T04:03:10;98439.06;;;20.10
11926;BMP180;6022;48.768;18.608;2022-07-29T04:05:42;98443.94;;;20.13
11926;BMP180;6022;48.768;18.608;2022-07-29T04:08:10;98443.16;;;20.20
11926;BMP180;6022;48.768;18.608;2022-07-29T04:10:38;98440.13;;;20.33
11926;BMP180;6022;48.768;18.608;2022-07-29T04:13:09;98446.88;;;20.34
11926;BMP180;6022;48.768;18.608;2022-07-29T04:15:36;98447.25;;;20.39
11926;BMP180;6022;48.768;18.608;2022-07-29T04:18:04;98447.25;;;20.39
11926;BMP180;6022;48.768;18.608;2022-07-29T04:20:33;98443.03;;;20.38
11926;BMP180;6022;48.768;18.608;2022-07-29T04:23:01;98444.84;;;20.45
11926;BMP180;6022;48.768;18.608;2022-07-29T04:25:29;98447.69;;;20.34
11926;BMP180;6022;48.768;18.608;2022-07-29T04:27:57;98451.09;;;20.35
11926;BMP180;6022;48.768;18.608;2022-07-29T04:30:29;98442.09;;;20.39
11926;BMP180;6022;48.768;18.608;2022-07-29T04:32:57;98436.59;;;20.34
11926;BMP180;6022;48.768;18.608;2022-07-29T04:35:24;98447.09;;;20.40
11926;BMP180;6022;48.768;18.608;2022-07-29T04:37:51;98443.22;;;20.44
11926;BMP180;6022;48.768;18.608;2022-07-29T04:40:20;98450.31;;;20.50
11926;BMP180;6022;48.768;18.608;2022-07-29T04:42:47;98437.31;;;20.59
11926;BMP180;6022;48.768;18.608;2022-07-29T04:45:15;98438.25;;;20.58
11926;BMP180;6022;48.768;18.608;2022-07-29T04:47:49;98436.06;;;20.63
11926;BMP180;6022;48.768;18.608;2022-07-29T04:50:16;98432.69;;;20.86
11926;BMP180;6022;48.768;18.608;2022-07-29T04:52:43;98439.16;;;21.30
11926;BMP180;6022;48.768;18.608;2022-07-29T04:55:11;98441.25;;;21.42
11926;BMP180;6022;48.768;18.608;2022-07-29T04:57:38;98437.38;;;21.23
11926;BMP180;6022;48.768;18.608;2022-07-29T05:00:07;98434.78;;;21.30
11926;BMP180;6022;48.768;18.608;2022-07-29T05:02:35;98434.78;;;21.38
11926;BMP180;6022;48.768;18.608;2022-07-29T05:05:03;98437.22;;;21.48
11926;BMP180;6022;48.768;18.608;2022-07-29T05:07:30;98427.66;;;22.18
11926;BMP180;6022;48.768;18.608;2022-07-29T05:09:57;98427.47;;;23.60
11926;BMP180;6022;48.768;18.608;2022-07-29T05:12:25;98425.31;;;24.91
11926;BMP180;6022;48.768;18.608;2022-07-29T05:14:54;98425.41;;;25.79
11926;BMP180;6022;48.768;18.608;2022-07-29T05:17:21;98428.69;;;25.87
11926;BMP180;6022;48.768;18.608;2022-07-29T05:19:49;98424.66;;;26.19
11926;BMP180;6022;48.768;18.608;2022-07-29T05:22:19;98428.19;;;26.45
11926;BMP180;6022;48.768;18.608;2022-07-29T05:24:47;98417.34;;;26.41
11926;BMP180;6022;48.768;18.608;2022-07-29T05:27:14;98421.50;;;27.08
11926;BMP180;6022;48.768;18.608;2022-07-29T05:29:42;98425.09;;;27.33
11926;BMP180;6022;48.768;18.608;2022-07-29T05:32:13;98428.78;;;28.70
11926;BMP180;6022;48.768;18.608;2022-07-29T05:34:41;98429.97;;;28.74
11926;BMP180;6022;48.768;18.608;2022-07-29T05:37:19;98424.97;;;29.75
11926;BMP180;6022;48.768;18.608;2022-07-29T05:39:46;98421.75;;;30.74
11926;BMP180;6022;48.768;18.608;2022-07-29T05:42:24;98417.56;;;31.24
11926;BMP180;6022;48.768;18.608;2022-07-29T05:44:52;98405.38;;;30.78
11926;BMP180;6022;48.768;18.608;2022-07-29T05:47:19;98418.41;;;30.38
11926;BMP180;6022;48.768;18.608;2022-07-29T05:49:47;98423.06;;;31.34
11926;BMP180;6022;48.768;18.608;2022-07-29T05:52:14;98416.00;;;31.46
11926;BMP180;6022;48.768;18.608;2022-07-29T05:54:42;98419.91;;;33.11
11926;BMP180;6022;48.768;18.608;2022-07-29T05:57:22;98419.88;;;34.14
11926;BMP180;6022;48.768;18.608;2022-07-29T05:59:50;98414.94;;;33.96
11926;BMP180;6022;48.768;18.608;2022-07-29T06:02:18;98411.81;;;34.41
11926;BMP180;6022;48.768;18.608;2022-07-29T06:04:46;98408.66;;;34.02
11926;BMP180;6022;48.768;18.608;2022-07-29T06:07:13;98403.69;;;34.95
11926;BMP180;6022;48.768;18.608;2022-07-29T06:09:40;98413.69;;;34.98
11926;BMP180;6022;48.768;18.608;2022-07-29T06:12:09;98413.06;;;36.45
11926;BMP180;6022;48.768;18.608;2022-07-29T06:14:37;98413.69;;;36.77
11926;BMP180;6022;48.768;18.608;2022-07-29T06:17:06;98418.91;;;36.57
11926;BMP180;6022;48.768;18.608;2022-07-29T06:19:36;98408.72;;;37.10
11926;BMP180;6022;48.768;18.608;2022-07-29T06:22:04;98406.31;;;37.28
11926;BMP180;6022;48.768;18.608;2022-07-29T06:24:31;98406.56;;;37.32
11926;BMP180;6022;48.768;18.608;2022-07-29T06:26:58;98409.50;;;37.30
11926;BMP180;6022;48.768;18.608;2022-07-29T06:29:26;98414.16;;;38.02
11926;BMP180;6022;48.768;18.608;2022-07-29T06:31:54;98413.38;;;38.02
11926;BMP180;6022;48.768;18.608;2022-07-29T06:34:22;98410.50;;;38.46
11926;BMP180;6022;48.768;18.608;2022-07-29T06:36:50;98416.91;;;38.40
11926;BMP180;6022;48.768;18.608;2022-07-29T06:39:20;98411.09;;;38.43
11926;BMP180;6022;48.768;18.608;2022-07-29T06:41:49;98416.63;;;38.90
11926;BMP180;6022;48.768;18.608;2022-07-29T06:44:18;98421.06;;;39.37
11926;BMP180;6022;48.768;18.608;2022-07-29T06:46:46;98426.84;;;40.78
11926;BMP180;6022;48.768;18.608;2022-07-29T06:49:16;98421.53;;;40.96
11926;BMP180;6022;48.768;18.608;2022-07-29T06:51:43;98418.16;;;40.91
11926;BMP180;6022;48.768;18.608;2022-07-29T06:54:14;98415.69;;;41.44
11926;BMP180;6022;48.768;18.608;2022-07-29T06:56:41;98417.25;;;43.00
11926;BMP180;6022;48.768;18.608;2022-07-29T06:59:11;98410.34;;;43.21
11926;BMP180;6022;48.768;18.608;2022-07-29T07:01:42;98405.88;;;43.68
11926;BMP180;6022;48.768;18.608;2022-07-29T07:04:11;98406.47;;;42.22
11926;BMP180;6022;48.768;18.608;2022-07-29T07:06:39;98405.78;;;43.52
11926;BMP180;6022;48.768;18.608;2022-07-29T07:09:07;98409.19;;;44.04
11926;BMP180;6022;48.768;18.608;2022-07-29T07:11:34;98402.38;;;44.37
11926;BMP180;6022;48.768;18.608;2022-07-29T07:14:04;98403.47;;;44.61
11926;BMP180;6022;48.768;18.608;2022-07-29T07:16:32;98405.56;;;45.06
11926;BMP180;6022;48.768;18.608;2022-07-29T07:19:00;98400.91;;;44.31
11926;BMP180;6022;48.768;18.608;2022-07-29T07:21:29;98395.66;;;43.70
11926;BMP180;6022;48.768;18.608;2022-07-29T07:23:59;98392.69;;;44.10
11926;BMP180;6022;48.768;18.608;2022-07-29T07:26:30;98400.50;;;44.87
11926;BMP180;6022;48.768;18.608;2022-07-29T07:28:57;98388.06;;;45.62
11926;BMP180;6022;48.768;18.608;2022-07-29T07:31:25;98397.59;;;45.34
11926;BMP180;6022;48.768;18.608;2022-07-29T07:33:52;98392.38;;;44.29
11926;BMP180;6022;48.768;18.608;2022-07-29T07:36:21;98393.81;;;43.79
11926;BMP180;6022;48.768;18.608;2022-07-29T07:38:49;98403.03;;;43.13
11926;BMP180;6022;48.768;18.608;2022-07-29T07:41:17;98391.91;;;42.76
11926;BMP180;6022;48.768;18.608;2022-07-29T07:43:44;98390.03;;;40.85
11926;BMP180;6022;48.768;18.608;2022-07-29T07:46:11;98393.78;;;40.01
11926;BMP180;6022;48.768;18.608;2022-07-29T07:48:39;98382.16;;;39.97
11926;BMP180;6022;48.768;18.608;2022-07-29T07:51:07;98389.28;;;40.98
11926;BMP180;6022;48.768;18.608;2022-07-29T07:53:34;98386.72;;;41.83
11926;BMP180;6022;48.768;18.608;2022-07-29T07:56:02;98386.28;;;42.43
11926;BMP180;6022;48.768;18.608;2022-07-29T07:58:37;98391.63;;;43.21
11926;BMP180;6022;48.768;18.608;2022-07-29T08:01:04;98388.88;;;43.65
11926;BMP180;6022;48.768;18.608;2022-07-29T08:03:33;98391.16;;;43.79
11926;BMP180;6022;48.768;18.608;2022-07-29T08:06:03;98395.13;;;43.90
11926;BMP180;6022;48.768;18.608;2022-07-29T08:08:31;98394.00;;;43.91
11926;BMP180;6022;48.768;18.608;2022-07-29T08:10:59;98399.16;;;44.18
11926;BMP180;6022;48.768;18.608;2022-07-29T08:13:34;98392.78;;;44.69
11926;BMP180;6022;48.768;18.608;2022-07-29T08:16:05;98399.69;;;44.53
11926;BMP180;6022;48.768;18.608;2022-07-29T08:18:41;98397.94;;;43.85
11926;BMP180;6022;48.768;18.608;2022-07-29T08:21:09;98386.59;;;44.94
11926;BMP180;6022;48.768;18.608;2022-07-29T08:23:42;98389.50;;;44.72
11926;BMP180;6022;48.768;18.608;2022-07-29T08:26:24;98383.72;;;43.38
11926;BMP180;6022;48.768;18.608;2022-07-29T08:28:52;98379.28;;;44.02
11926;BMP180;6022;48.768;18.608;2022-07-29T08:31:20;98382.34;;;43.87
11926;BMP180;6022;48.768;18.608;2022-07-29T08:33:49;98383.69;;;45.49
11926;BMP180;6022;48.768;18.608;2022-07-29T08:36:16;98384.00;;;46.62
11926;BMP180;6022;48.768;18.608;2022-07-29T08:38:44;98389.41;;;46.74
11926;BMP180;6022;48.768;18.608;2022-07-29T08:41:12;98390.03;;;46.39
11926;BMP180;6022;48.768;18.608;2022-07-29T08:43:40;98374.25;;;45.43
11926;BMP180;6022;48.768;18.608;2022-07-29T08:46:08;98377.28;;;45.25
11926;BMP180;6022;48.768;18.608;2022-07-29T08:48:36;98379.31;;;45.28
11926;BMP180;6022;48.768;18.608;2022-07-29T08:51:06;98379.66;;;45.01
11926;BMP180;6022;48.768;18.608;2022-07-29T08:53:36;98381.19;;;44.10
11926;BMP180;6022;48.768;18.608;2022-07-29T08:56:05;98382.22;;;44.81
11926;BMP180;6022;48.768;18.608;2022-07-29T08:58:34;98381.19;;;45.44
11926;BMP180;6022;48.768;18.608;2022-07-29T09:01:04;98379.09;;;46.64
11926;BMP180;6022;48.768;18.608;2022-07-29T09:03:38;98375.13;;;47.02
11926;BMP180;6022;48.768;18.608;2022-07-29T09:06:13;98375.25;;;45.67
11926;BMP180;6022;48.768;18.608;2022-07-29T09:08:41;98370.31;;;43.98
11926;BMP180;6022;48.768;18.608;2022-07-29T09:11:10;98366.78;;;41.67
11926;BMP180;6022;48.768;18.608;2022-07-29T09:13:38;98369.66;;;40.57
11926;BMP180;6022;48.768;18.608;2022-07-29T09:16:07;98370.72;;;42.10
11926;BMP180;6022;48.768;18.608;2022-07-29T09:18:46;98362.50;;;41.93
11926;BMP180;6022;48.768;18.608;2022-07-29T09:21:17;98367.34;;;42.04
11926;BMP180;6022;48.768;18.608;2022-07-29T09:24:11;98368.13;;;41.78
11926;BMP180;6022;48.768;18.608;2022-07-29T09:26:42;98362.50;;;42.54
11926;BMP180;6022;48.768;18.608;2022-07-29T09:29:19;98370.00;;;43.31
11926;BMP180;6022;48.768;18.608;2022-07-29T09:31:52;98366.75;;;42.77
11926;BMP180;6022;48.768;18.608;2022-07-29T09:34:28;98366.25;;;43.62
11926;BMP180;6022;48.768;18.608;2022-07-29T09:36:58;98361.22;;;44.16
11926;BMP180;6022;48.768;18.608;2022-07-29T09:39:39;98358.41;;;44.54
11926;BMP180;6022;48.768;18.608;2022-07-29T09:42:29;98360.75;;;44.22
11926;BMP180;6022;48.768;18.608;2022-07-29T09:44:59;98361.56;;;44.56
11926;BMP180;6022;48.768;18.608;2022-07-29T09:47:43;98351.78;;;44.44
11926;BMP180;6022;48.768;18.608;2022-07-29T09:50:12;98346.72;;;44.17
11926;BMP180;6022;48.768;18.608;2022-07-29T09:52:52;98346.72;;;44.17
11926;BMP180;6022;48.768;18.608;2022-07-29T09:55:20;98334.78;;;42.42
11926;BMP180;6022;48.768;18.608;2022-07-29T09:57:48;98338.03;;;40.56
11926;BMP180;6022;48.768;18.608;2022-07-29T10:00:19;98328.09;;;38.71
11926;BMP180;6022;48.768;18.608;2022-07-29T10:02:47;98327.13;;;37.46
11926;BMP180;6022;48.768;18.608;2022-07-29T10:05:24;98337.72;;;37.42
11926;BMP180;6022;48.768;18.608;2022-07-29T10:07:57;98322.34;;;38.97
11926;BMP180;6022;48.768;18.608;2022-07-29T10:10:27;98326.88;;;41.04
11926;BMP180;6022;48.768;18.608;2022-07-29T10:13:07;98324.88;;;41.28
11926;BMP180;6022;48.768;18.608;2022-07-29T10:15:44;98322.50;;;41.93
11926;BMP180;6022;48.768;18.608;2022-07-29T10:18:14;98310.88;;;41.62
11926;BMP180;6022;48.768;18.608;2022-07-29T10:20:45;98320.84;;;40.98
11926;BMP180;6022;48.768;18.608;2022-07-29T10:23:13;98326.44;;;41.29
11926;BMP180;6022;48.768;18.608;2022-07-29T10:25:41;98323.56;;;40.07
11926;BMP180;6022;48.768;18.608;2022-07-29T10:28:12;98313.88;;;40.53
11926;BMP180;6022;48.768;18.608;2022-07-29T10:30:44;98301.28;;;38.77
11926;BMP180;6022;48.768;18.608;2022-07-29T10:39:24;98302.94;;;37.78
11926;BMP180;6022;48.768;18.608;2022-07-29T10:42:21;98308.28;;;38.97
11926;BMP180;6022;48.768;18.608;2022-07-29T10:45:03;98313.38;;;38.55
11926;BMP180;6022;48.768;18.608;2022-07-29T10:47:32;98307.47;;;37.67
11926;BMP180;6022;48.768;18.608;2022-07-29T10:50:05;98305.47;;;36.46
11926;BMP180;6022;48.768;18.608;2022-07-29T10:52:53;98311.63;;;35.86
11926;BMP180;6022;48.768;18.608;2022-07-29T10:55:37;98322.50;;;35.07
11926;BMP180;6022;48.768;18.608;2022-07-29T10:58:19;98327.06;;;33.64
11926;BMP180;6022;48.768;18.608;2022-07-29T11:00:52;98324.09;;;32.58
11926;BMP180;6022;48.768;18.608;2022-07-29T11:03:44;98336.56;;;31.96
11926;BMP180;6022;48.768;18.608;2022-07-29T11:06:16;98339.25;;;31.17
11926;BMP180;6022;48.768;18.608;2022-07-29T11:09:19;98340.88;;;30.77
11926;BMP180;6022;48.768;18.608;2022-07-29T11:12:01;98344.94;;;30.62
11926;BMP180;6022;48.768;18.608;2022-07-29T11:17:19;98348.41;;;30.15
11926;BMP180;6022;48.768;18.608;2022-07-29T11:19:47;98343.88;;;29.75
11926;BMP180;6022;48.768;18.608;2022-07-29T11:22:35;98332.31;;;30.01
11926;BMP180;6022;48.768;18.608;2022-07-29T11:25:17;98326.53;;;30.10
11926;BMP180;6022;48.768;18.608;2022-07-29T11:28:19;98316.63;;;30.30
11926;BMP180;6022;48.768;18.608;2022-07-29T11:30:53;98314.03;;;30.41
11926;BMP180;6022;48.768;18.608;2022-07-29T11:33:32;98319.28;;;31.16
11926;BMP180;6022;48.768;18.608;2022-07-29T11:36:19;98310.47;;;31.67
11926;BMP180;6022;48.768;18.608;2022-07-29T11:39:27;98302.25;;;32.41
11926;BMP180;6022;48.768;18.608;2022-07-29T11:45:13;98300.56;;;35.02
11926;BMP180;6022;48.768;18.608;2022-07-29T11:48:01;98307.41;;;34.93
11926;BMP180;6022;48.768;18.608;2022-07-29T11:50:48;98300.81;;;35.00
11926;BMP180;6022;48.768;18.608;2022-07-29T11:53:17;98302.25;;;35.53
11926;BMP180;6022;48.768;18.608;2022-07-29T11:55:44;98291.56;;;35.29
11926;BMP180;6022;48.768;18.608;2022-07-29T11:58:32;98293.69;;;35.88
11926;BMP180;6022;48.768;18.608;2022-07-29T12:01:00;98297.34;;;35.72
11926;BMP180;6022;48.768;18.608;2022-07-29T12:03:31;98291.41;;;35.50
11926;BMP180;6022;48.768;18.608;2022-07-29T12:06:11;98286.31;;;35.94
11926;BMP180;6022;48.768;18.608;2022-07-29T12:08:43;98281.22;;;35.73
11926;BMP180;6022;48.768;18.608;2022-07-29T12:11:19;98278.22;;;35.60
11926;BMP180;6022;48.768;18.608;2022-07-29T12:13:51;98278.22;;;35.60
11926;BMP180;6022;48.768;18.608;2022-07-29T12:16:20;98273.75;;;35.14
11926;BMP180;6022;48.768;18.608;2022-07-29T12:19:00;98269.03;;;33.97
11926;BMP180;6022;48.768;18.608;2022-07-29T12:21:46;98263.66;;;33.45
11926;BMP180;6022;48.768;18.608;2022-07-29T12:24:23;98256.31;;;33.09
11926;BMP180;6022;48.768;18.608;2022-07-29T12:26:58;98249.38;;;33.03
11926;BMP180;6022;48.768;18.608;2022-07-29T12:29:28;98260.56;;;32.94
11926;BMP180;6022;48.768;18.608;2022-07-29T12:32:03;98260.06;;;32.64
11926;BMP180;6022;48.768;18.608;2022-07-29T12:34:41;98261.34;;;32.62
11926;BMP180;6022;48.768;18.608;2022-07-29T12:37:09;98257.63;;;32.58
11926;BMP180;6022;48.768;18.608;2022-07-29T12:39:37;98263.84;;;32.24
11926;BMP180;6022;48.768;18.608;2022-07-29T12:42:13;98253.75;;;31.89
11926;BMP180;6022;48.768;18.608;2022-07-29T12:44:49;98250.41;;;31.93
11926;BMP180;6022;48.768;18.608;2022-07-29T12:47:19;98245.97;;;31.94
11926;BMP180;6022;48.768;18.608;2022-07-29T12:49:48;98254.44;;;32.28
11926;BMP180;6022;48.768;18.608;2022-07-29T12:54:56;98258.00;;;32.50
11926;BMP180;6022;48.768;18.608;2022-07-29T12:57:25;98247.66;;;32.60
11926;BMP180;6022;48.768;18.608;2022-07-29T13:00:05;98245.94;;;33.19
11926;BMP180;6022;48.768;18.608;2022-07-29T13:02:35;98242.47;;;32.48
11926;BMP180;6022;48.768;18.608;2022-07-29T13:05:05;98245.50;;;32.40
11926;BMP180;6022;48.768;18.608;2022-07-29T13:07:35;98245.09;;;32.48
11926;BMP180;6022;48.768;18.608;2022-07-29T13:10:24;98243.41;;;31.99
11926;BMP180;6022;48.768;18.608;2022-07-29T13:13:13;98238.13;;;31.43
11926;BMP180;6022;48.768;18.608;2022-07-29T13:15:44;98230.34;;;31.87
11926;BMP180;6022;48.768;18.608;2022-07-29T13:18:34;98230.47;;;31.81
11926;BMP180;6022;48.768;18.608;2022-07-29T13:21:19;98234.75;;;31.59
11926;BMP180;6022;48.768;18.608;2022-07-29T13:23:46;98228.94;;;31.57
11926;BMP180;6022;48.768;18.608;2022-07-29T13:26:14;98219.09;;;31.36
11926;BMP180;6022;48.768;18.608;2022-07-29T13:28:45;98225.94;;;31.26
11926;BMP180;6022;48.768;18.608;2022-07-29T13:31:12;98225.69;;;31.27
11926;BMP180;6022;48.768;18.608;2022-07-29T13:33:39;98214.63;;;31.25
11926;BMP180;6022;48.768;18.608;2022-07-29T13:36:07;98214.19;;;31.28
11926;BMP180;6022;48.768;18.608;2022-07-29T13:38:35;98209.34;;;31.48
11926;BMP180;6022;48.768;18.608;2022-07-29T13:41:02;98205.53;;;31.67
11926;BMP180;6022;48.768;18.608;2022-07-29T13:43:31;98204.13;;;31.76
11926;BMP180;6022;48.768;18.608;2022-07-29T13:45:58;98200.91;;;31.85
11926;BMP180;6022;48.768;18.608;2022-07-29T13:48:26;98196.00;;;31.89
11926;BMP180;6022;48.768;18.608;2022-07-29T13:50:53;98198.78;;;31.99
11926;BMP180;6022;48.768;18.608;2022-07-29T13:53:20;98199.97;;;31.91
11926;BMP180;6022;48.768;18.608;2022-07-29T13:55:53;98195.03;;;31.67
11926;BMP180;6022;48.768;18.608;2022-07-29T13:58:21;98193.09;;;31.35
11926;BMP180;6022;48.768;18.608;2022-07-29T14:00:48;98198.31;;;31.46
11926;BMP180;6022;48.768;18.608;2022-07-29T14:03:16;98192.88;;;31.64
11926;BMP180;6022;48.768;18.608;2022-07-29T14:05:43;98186.47;;;31.71
11926;BMP180;6022;48.768;18.608;2022-07-29T14:08:11;98192.03;;;31.86
11926;BMP180;6022;48.768;18.608;2022-07-29T14:10:41;98196.97;;;31.99
11926;BMP180;6022;48.768;18.608;2022-07-29T14:13:08;98203.19;;;32.09
11926;BMP180;6022;48.768;18.608;2022-07-29T14:15:53;98205.09;;;32.30
11926;BMP180;6022;48.768;18.608;2022-07-29T14:18:20;98196.44;;;32.30
11926;BMP180;6022;48.768;18.608;2022-07-29T14:20:47;98185.69;;;32.15
11926;BMP180;6022;48.768;18.608;2022-07-29T14:23:18;98178.53;;;31.83
11926;BMP180;6022;48.768;18.608;2022-07-29T14:25:46;98175.66;;;31.68
11926;BMP180;6022;48.768;18.608;2022-07-29T14:28:15;98166.44;;;31.82
11926;BMP180;6022;48.768;18.608;2022-07-29T14:30:43;98165.31;;;32.05
11926;BMP180;6022;48.768;18.608;2022-07-29T14:33:11;98165.28;;;31.89
11926;BMP180;6022;48.768;18.608;2022-07-29T14:35:38;98165.56;;;31.76
11926;BMP180;6022;48.768;18.608;2022-07-29T14:38:06;98161.31;;;31.59
11926;BMP180;6022;48.768;18.608;2022-07-29T14:40:33;98161.22;;;31.15
11926;BMP180;6022;48.768;18.608;2022-07-29T14:43:01;98174.13;;;30.94
11926;BMP180;6022;48.768;18.608;2022-07-29T14:45:28;98166.53;;;30.81
11926;BMP180;6022;48.768;18.608;2022-07-29T14:47:56;98167.09;;;30.60
11926;BMP180;6022;48.768;18.608;2022-07-29T14:50:26;98168.53;;;30.45
11926;BMP180;6022;48.768;18.608;2022-07-29T14:52:59;98168.03;;;30.14
11926;BMP180;6022;48.768;18.608;2022-07-29T14:55:27;98174.47;;;30.00
11926;BMP180;6022;48.768;18.608;2022-07-29T14:57:55;98166.25;;;29.85
11926;BMP180;6022;48.768;18.608;2022-07-29T15:00:36;98165.56;;;29.78
11926;BMP180;6022;48.768;18.608;2022-07-29T15:03:04;98161.06;;;29.67